Naples, FL

1:50 AM EST en Marzo 01, 2015 (GMT -0500)
KFLNAPLE31 | Change Station
CLOSE
Current Station
Estación meteorológica personal
Location: Naples, FL
Altura: 20 ft
Estaciones meteorológicas cercanas

Alt 20 ft 26.16 °N, 81.78 °W | Updated 3 seconds ago

Overcast
Nublado
71.6 ° F
Sensación térmica 71.6 ° F
N
10.0
Viento Variable Viento desde ENE
Gusts 14.0 mph

Hoy
Alta -- | Baja -- ° F
--% Posibilidad de precipitaciones
Ayer
Alta -- | Baja -- ° F
Precip. -- pul
6:50 AM 6:28 PM
Gibosa creciente, 83% visible
Presión 30.27 pul
Visibilidad 7.0 Millas
Nubes Muy nublado 800 ft
Nublado 2200 ft
Punto de rocío 70 ° F
Humedad 94%
Precipitaciones 0.00 pul
Espesor de la nieve No disponible.
UV 0 de una escala de 12
Polen 7.80 de una escala de 12
Calidad del aire No disponible.
Flu Activity No disponible.
METAR KAPF 010553Z AUTO 06007KT 7SM BKN008 OVC022 22/21 A3027 RMK AO2 SLP249 T02170211 10222 20206 58003

More Conditions Fewer Conditions

Presión 30.27 pul
Visibilidad 7.0 Millas
Nubes Muy nublado 800 ft
Nublado 2200 ft
Punto de rocío 70 ° F
Humedad 94%
Precipitaciones 0.00 pul
Espesor de la nieve No disponible.
UV 0 de una escala de 12
Polen 7.80 de una escala de 12
Calidad del aire No disponible.
Flu Activity No disponible.
METAR KAPF 010553Z AUTO 06007KT 7SM BKN008 OVC022 22/21 A3027 RMK AO2 SLP249 T02170211 10222 20206 58003

More Conditions Fewer Conditions

10-Day Weather Forecast

Almanac

Astronomía

Mar. 01, 2015 Salida Puesta
Hora real
Crepúsculo civil
Crepúsculo náutico
Crepúsculo astronómico
Luna
Horas de luz
Horas de luz
Tomorrow will be .
, % of the Moon is Illuminated

Extremos de hoy

Máximos del estado Bajos del estado

Community

WunderPhotos

Upload Photos

1,801,345 ¡fotos cargadas!

WunderBlogs® & News

Nearby

Calidad del aire

  Calidad del aire Índice AQ Contaminante
Not available.

Grosos de nieve

Estación Profundido Altura

Actividad de terremotos

Ciudad Distance Mag. Tiempo y dato
Magnitud mínima muestra es 2,5.

Temperaturas de aguas costeras

Lugar Temperatura

Estaciones meteorológicas cercanas